Latest Weather Observations for Coen Airport

IDQ60801

Issued at 10:32 am EST Sunday 31 July 2016 (issued every 30 minutes, with the page automatically refreshed every 10 minutes)

About weather observations | Map of weather stations | Latest weather observations for QLD | Other Formats
Station Details ID: 027073 Name: COEN AIRPORT Lat: -13.76 Lon: 143.12 Height: 159.3 m
Data from the previous 72 hours. | See also: Recent months at Coen Airport
Date/Time
EST
Temp
°C
App
Temp
°C
Dew
Point
°C
Rel
Hum
%
Delta-T
°C
Wind Press
QNH
hPa
Press
MSL
hPa
Rain since
9am
mm
Dir  Spd
km/h
Gust
km/h
Spd
kts
Gust
kts
31/10:30am 28.2 28.9 19.7 60 5.6 SSE 15 24 8 13 1013.7 - 0.0
31/10:00am 27.6 28.4 19.9 63 5.1 S 15 24 8 13 1013.8 - 0.0
31/09:30am 27.3 28.6 20.1 64 4.7 SE 13 24 7 13 1013.8 - 0.0
31/09:00am 26.2 27.7 19.8 68 4.2 SSE 11 20 6 11 1013.7 1013.0 0.0
31/08:30am 25.2 26.4 19.8 72 3.5 SSE 13 17 7 9 1013.6 - 0.0
31/08:00am 24.1 25.9 19.6 76 2.9 S 9 11 5 6 1013.4 - 0.0
31/07:30am 23.2 25.0 19.6 80 2.3 ESE 9 17 5 9 1013.1 - 0.0
31/07:00am 20.4 22.0 16.8 80 2.2 SE 4 7 2 4 1012.9 - 0.0
31/06:30am 21.3 22.6 17.5 79 2.4 SE 7 11 4 6 1012.6 - 0.0
31/06:00am 21.7 22.0 17.9 79 2.4 SE 13 20 7 11 1012.4 1011.7 0.0
31/05:30am 21.7 22.5 18.1 80 2.3 SSE 11 13 6 7 1012.1 - 0.0
31/05:00am 20.9 22.3 17.3 80 2.2 SSE 6 7 3 4 1012.1 - 0.0
31/04:30am 20.1 22.2 16.3 79 2.3 CALM 0 0 0 0 1012.0 - 0.0
31/04:00am 20.4 22.6 16.4 78 2.4 CALM 0 0 0 0 1012.1 - 0.0
31/03:30am 21.6 23.3 17.2 76 2.7 S 4 9 2 5 1012.2 - 0.0
31/03:00am 22.7 24.1 17.8 74 3.1 SSW 7 17 4 9 1012.3 1011.6 0.0
31/02:30am 23.2 23.2 18.1 73 3.2 E 15 26 8 14 1012.6 - 0.0
31/02:00am 23.2 24.0 18.1 73 3.2 E 11 17 6 9 1012.8 - 0.0
31/01:30am 23.1 23.8 18.0 73 3.2 ESE 11 17 6 9 1013.0 - 0.0
31/01:00am 23.4 24.3 18.3 73 3.2 ESE 11 17 6 9 1013.3 - 0.0
31/12:30am 23.5 24.7 18.2 72 3.3 ESE 9 15 5 8 1013.6 - 0.0
31/12:00am 23.7 24.6 18.4 72 3.4 ESE 11 24 6 13 1013.7 1013.0 0.0
 
Date/Time
EST
Temp
°C
App
Temp
°C
Dew
Point
°C
Rel
Hum
%
Delta-T
°C
Wind Press
QNH
hPa
Press
MSL
hPa
Rain since
9am
mm
Dir  Spd
km/h
Gust
km/h
Spd
kts
Gust
kts
30/11:30pm 24.2 24.0 18.6 71 3.6 ESE 17 26 9 14 1013.9 - 0.0
30/11:00pm 23.8 24.3 18.4 72 3.4 ESE 13 20 7 11 1013.8 - 0.0
30/10:30pm 23.8 24.8 18.7 73 3.2 ESE 11 17 6 9 1014.0 - 0.0
30/10:00pm 24.0 23.8 18.6 72 3.4 ESE 17 24 9 13 1013.9 - 0.0
30/09:30pm 23.7 25.1 18.6 73 3.2 ESE 9 15 5 8 1013.9 - 0.0
30/09:00pm 24.0 25.1 18.9 73 3.3 ESE 11 17 6 9 1013.8 1013.1 0.0
30/08:30pm 24.0 25.2 19.1 74 3.1 ESE 11 17 6 9 1013.5 - 0.0
30/08:00pm 23.5 25.2 18.6 74 3.1 SE 7 13 4 7 1013.1 - 0.0
30/07:30pm 23.5 24.4 18.4 73 3.2 ESE 11 17 6 9 1012.9 - 0.0
30/07:00pm 23.7 25.2 18.8 74 3.1 SE 9 13 5 7 1012.5 - 0.0
30/06:30pm 24.3 25.1 19.1 73 3.3 ESE 13 19 7 10 1012.2 - 0.0
30/06:00pm 24.2 25.0 19.1 73 3.3 E 13 20 7 11 1012.0 1011.3 0.0
30/05:30pm 25.9 26.7 19.1 66 4.4 E 13 20 7 11 1011.9 - 0.0
30/05:00pm 26.3 25.7 18.9 63 4.8 E 20 30 11 16 1011.8 - 0.0
30/04:30pm 26.6 27.1 19.2 64 4.8 SE 15 20 8 11 1011.7 - 0.0
30/04:00pm 26.6 26.3 19.2 64 4.8 SE 19 24 10 13 1011.6 - 0.0
30/03:30pm 27.2 26.7 19.0 61 5.3 ESE 20 30 11 16 1011.4 - 0.0
30/03:00pm 27.4 27.1 19.5 62 5.2 SSE 20 26 11 14 1011.5 1010.8 0.0
30/02:30pm 27.5 26.3 19.3 61 5.3 SE 24 35 13 19 1011.8 - 0.0
30/02:00pm 28.0 26.9 19.5 60 5.6 ESE 24 32 13 17 1012.2 - 0.0
30/01:30pm 27.2 25.6 19.3 62 5.1 ESE 26 43 14 23 1012.7 - 0.0
30/01:00pm 27.6 28.3 19.7 62 5.2 ESE 15 24 8 13 1012.9 - 0.0
30/12:30pm 27.7 27.7 19.8 62 5.2 SE 19 32 10 17 1013.2 - 0.0
30/12:00pm 27.7 27.6 19.5 61 5.4 E 19 30 10 16 1013.5 1012.8 0.0
30/11:30am 27.7 27.7 19.8 62 5.2 SE 19 32 10 17 1013.8 - 0.0
30/11:00am 27.7 27.2 20.0 63 5.1 ESE 22 33 12 18 1013.9 - 0.0
30/10:30am 27.4 27.3 20.0 64 4.9 SE 20 35 11 19 1014.1 - 0.0
30/10:00am 27.8 28.7 20.9 66 4.6 ESE 17 33 9 18 1014.1 - 0.0
30/09:30am 26.9 29.4 21.0 70 3.9 ESE 9 17 5 9 1014.3 - 0.0
30/09:00am 25.2 26.8 20.7 76 3.0 SSE 13 17 7 9 1014.3 1013.6 0.0
30/08:30am 22.6 24.1 19.0 80 2.3 S 9 11 5 6 1014.2 - 0.0
30/08:00am 21.2 21.9 18.0 82 2.0 S 11 13 6 7 1014.1 - 0.0
30/07:30am 20.5 20.3 17.5 83 1.9 S 15 17 8 9 1013.7 - 0.0
30/07:00am 19.6 20.7 16.6 83 1.8 SSW 6 11 3 6 1013.5 - 0.0
30/06:30am 19.4 21.2 16.4 83 1.8 NE 2 7 1 4 1013.4 - 0.0
30/06:00am 19.2 21.2 15.9 81 2.0 CALM 0 6 0 3 1013.1 1012.4 0.0
30/05:30am 20.0 21.5 16.6 81 2.1 SSW 4 9 2 5 1012.9 - 0.0
30/05:00am 20.5 21.6 17.1 81 2.1 SSE 7 11 4 6 1012.9 - 0.0
30/04:30am 20.2 22.2 17.0 82 2.0 WSW 2 9 1 5 1012.9 - 0.0
30/04:00am 19.5 20.8 16.2 81 2.0 SE 4 9 2 5 1012.8 - 0.0
30/03:30am 19.9 20.4 16.5 81 2.1 SSE 9 13 5 7 1013.0 - 0.0
30/03:00am 20.0 20.4 16.4 80 2.2 SSE 9 13 5 7 1013.1 1012.4 0.0
30/02:30am 20.2 20.3 16.6 80 2.2 SSE 11 15 6 8 1013.3 - 0.0
30/02:00am 20.8 21.1 17.0 79 2.3 SSE 11 13 6 7 1013.5 - 0.0
30/01:30am 20.5 20.6 16.5 78 2.4 SSE 11 13 6 7 1013.8 - 0.0
30/01:00am 21.1 21.0 16.9 77 2.6 SE 13 17 7 9 1014.1 - 0.0
30/12:30am 21.3 21.9 16.9 76 2.7 SSE 9 13 5 7 1014.2 - 0.0
30/12:00am 22.0 22.5 17.4 75 2.9 SE 11 17 6 9 1014.6 1013.9 0.0
 
Date/Time
EST
Temp
°C
App
Temp
°C
Dew
Point
°C
Rel
Hum
%
Delta-T
°C
Wind Press
QNH
hPa
Press
MSL
hPa
Rain since
9am
mm
Dir  Spd
km/h
Gust
km/h
Spd
kts
Gust
kts
29/11:30pm 21.4 22.0 16.8 75 2.8 SE 9 13 5 7 1014.7 - 0.0
29/11:00pm 22.0 23.0 16.9 73 3.1 ESE 7 9 4 5 1014.9 - 0.0
29/10:30pm 23.0 23.9 17.5 71 3.4 ESE 9 15 5 8 1014.9 - 0.0
29/10:00pm 23.7 24.1 18.1 71 3.5 ESE 13 20 7 11 1015.0 - 0.0
29/09:30pm 23.6 24.7 18.0 71 3.5 ESE 9 15 5 8 1015.0 - 0.0
29/09:00pm 23.4 26.1 17.8 71 3.5 CALM 0 0 0 0 1014.9 1014.2 0.0
29/08:30pm 23.5 25.0 17.7 70 3.6 ESE 6 9 3 5 1014.5 - 0.0
29/08:00pm 23.5 24.8 17.5 69 3.7 E 7 15 4 8 1013.9 - 0.0
29/07:30pm 23.5 25.3 17.3 68 3.9 E 4 7 2 4 1013.5 - 0.0
29/07:00pm 23.7 24.8 17.2 67 4.0 ESE 7 13 4 7 1013.3 - 0.0
29/06:30pm 24.4 24.6 17.6 66 4.3 ESE 13 20 7 11 1013.0 - 0.0
29/06:00pm 24.9 25.2 17.9 65 4.4 ESE 13 19 7 10 1012.8 1012.1 0.0
29/05:30pm 25.5 25.0 17.9 63 4.8 SE 17 24 9 13 1012.7 - 0.0
29/05:00pm 25.7 24.9 17.9 62 4.9 SE 19 24 10 13 1012.6 - 0.0
29/04:30pm 26.1 24.7 18.0 61 5.1 SE 22 30 12 16 1012.5 - 0.0
29/04:00pm 26.5 25.7 18.4 61 5.2 SE 20 28 11 15 1012.4 - 0.0
29/03:30pm 26.4 24.7 18.0 60 5.3 SE 24 33 13 18 1012.4 - 0.0
29/03:00pm 27.5 27.0 19.0 59 5.5 SE 20 26 11 14 1012.4 1011.7 0.0
29/02:30pm 26.4 25.5 18.3 61 5.2 SE 20 30 11 16 1012.7 - 0.0
29/02:00pm 26.8 26.3 18.6 60 5.3 S 19 28 10 15 1012.9 - 0.0
29/01:30pm 26.1 25.9 18.5 63 4.9 SE 17 20 9 11 1013.6 - 0.0
29/01:00pm 26.1 24.9 18.5 63 4.9 ESE 22 37 12 20 1013.9 - 0.0
29/12:30pm 26.3 25.8 18.7 63 4.9 SE 19 30 10 16 1014.3 - 0.0
29/12:00pm 26.4 25.9 19.0 63 4.8 SE 20 30 11 16 1014.7 1014.0 0.0
29/11:30am 25.1 24.3 18.1 65 4.4 ESE 19 24 10 13 1015.1 - 0.0
29/11:00am 25.3 24.6 18.2 64 4.5 ESE 19 28 10 15 1015.4 - 0.0
29/10:30am 24.9 23.6 18.1 66 4.3 SE 22 35 12 19 1015.3 - 0.0
29/10:00am 25.0 24.8 18.4 66 4.2 SE 17 24 9 13 1015.4 - 0.0
29/09:30am 24.6 25.2 18.5 69 3.9 SE 13 20 7 11 1015.4 - 0.0
29/09:00am 24.1 24.3 18.5 71 3.6 SE 15 19 8 10 1015.2 1014.5 0.0
29/08:30am 23.1 23.4 18.0 73 3.2 SSE 13 19 7 10 1015.1 - 0.0
29/08:00am 22.4 23.0 17.8 75 2.9 S 11 15 6 8 1014.7 - 0.0
29/07:30am 21.2 21.4 16.8 76 2.7 S 11 19 6 10 1014.6 - 0.0
29/07:00am 20.5 20.4 16.1 76 2.7 S 11 19 6 10 1014.3 - 0.0
29/06:30am 20.4 20.6 15.8 75 2.8 S 9 13 5 7 1014.2 - 0.0
29/06:00am 20.7 21.0 16.1 75 2.8 SSE 9 13 5 7 1013.9 1013.2 0.0
29/05:30am 20.6 20.4 15.6 73 3.0 SSE 11 13 6 7 1013.8 - 0.0
29/05:00am 20.9 20.8 15.9 73 3.0 S 11 17 6 9 1013.7 - 0.0
29/04:30am 21.1 20.6 15.9 72 3.1 SE 13 17 7 9 1013.6 - 0.0
29/04:00am 20.9 21.1 15.7 72 3.1 ESE 9 13 5 7 1013.6 - 0.0
29/03:30am 21.2 22.1 16.0 72 3.1 ESE 6 13 3 7 1013.7 - 0.0
29/03:00am 21.2 20.6 15.7 71 3.3 SSE 13 15 7 8 1013.9 1013.2 0.0
29/02:30am 21.5 21.7 15.8 70 3.4 SSE 9 13 5 7 1014.1 - 0.0
29/02:00am 21.9 21.5 16.2 70 3.5 SE 13 20 7 11 1014.3 - 0.0
29/01:30am 22.1 22.0 16.1 69 3.6 SE 11 17 6 9 1014.7 - 0.0
29/01:00am 22.8 23.2 16.4 67 3.9 ESE 9 15 5 8 1015.2 - 0.0
29/12:30am 23.0 23.5 16.5 67 4.0 E 9 17 5 9 1015.5 - 0.0
29/12:00am 23.1 22.8 16.4 66 4.1 E 13 24 7 13 1015.6 1014.9 0.0
 
Date/Time
EST
Temp
°C
App
Temp
°C
Dew
Point
°C
Rel
Hum
%
Delta-T
°C
Wind Press
QNH
hPa
Press
MSL
hPa
Rain since
9am
mm
Dir  Spd
km/h
Gust
km/h
Spd
kts
Gust
kts
28/11:30pm 23.4 22.7 16.4 64 4.3 E 15 24 8 13 1015.8 - 0.0
28/11:00pm 23.8 21.6 16.8 65 4.3 SE 24 35 13 19 1015.9 - 0.0
28/10:30pm 23.7 22.9 17.0 66 4.2 ESE 17 26 9 14 1016.2 - 0.0
28/10:00pm 23.9 23.1 17.2 66 4.2 ESE 17 24 9 13 1016.1 - 0.0
28/09:30pm 23.9 24.5 17.6 68 3.9 SE 11 15 6 8 1016.1 - 0.0
28/09:00pm 23.8 24.3 17.5 68 3.9 ESE 11 15 6 8 1015.8 1015.1 0.0
28/08:30pm 24.1 23.5 17.6 67 4.1 SE 17 24 9 13 1015.5 - 0.0
28/08:00pm 24.5 23.5 17.5 65 4.4 ESE 19 32 10 17 1015.2 - 0.0
28/07:30pm 24.6 24.4 17.6 65 4.4 E 15 26 8 14 1014.9 - 0.0
28/07:00pm 24.6 25.0 17.3 64 4.6 E 11 17 6 9 1014.4 - 0.0
28/06:30pm 25.1 25.3 17.6 63 4.7 E 13 19 7 10 1014.2 - 0.0
28/06:00pm 25.6 25.0 17.5 61 5.1 E 17 26 9 14 1013.9 1013.2 0.0
28/05:30pm 26.1 25.2 17.7 60 5.3 ESE 19 28 10 15 1013.4 - 0.0
28/05:00pm 26.6 26.5 17.9 59 5.5 E 15 26 8 14 1013.1 - 0.0
28/04:30pm 26.9 25.5 17.9 57 5.7 ESE 22 33 12 18 1012.8 - 0.0
28/04:00pm 26.9 26.4 17.7 57 5.8 E 17 26 9 14 1012.6 - 0.0
28/03:30pm 28.0 26.2 17.8 54 6.5 ESE 24 35 13 19 1012.4 - 0.0
28/03:12pm 28.2 25.7 18.0 54 6.5 ESE 28 46 15 25 1012.6 - 0.0
28/03:00pm 27.9 27.0 18.3 56 6.2 ESE 20 33 11 18 1012.6 1011.9 0.0
28/02:30pm 28.5 27.2 19.1 56 6.1 ESE 24 37 13 20 1012.9 - 0.0
28/02:00pm 27.6 27.2 18.9 59 5.6 E 19 30 10 16 1013.3 - 0.0
28/01:30pm 28.4 28.3 19.6 59 5.8 E 19 32 10 17 1013.6 - 0.0
28/01:00pm 27.3 26.3 18.9 60 5.4 ESE 22 37 12 20 1014.1 - 0.0
28/12:30pm 26.3 25.9 18.9 63 4.8 SSE 19 24 10 13 1014.4 - 0.0
28/12:00pm 26.1 24.9 18.5 63 4.9 SE 22 32 12 17 1014.8 1014.1 0.0
28/11:30am 25.8 25.2 18.5 64 4.7 SE 19 30 10 16 1015.1 - 0.0
28/11:00am 26.1 25.1 18.8 64 4.7 SE 22 32 12 17 1015.5 - 0.0

Other Formats:

Comma delimited format used in spreadsheet applications
http://www.bom.gov.au/fwo/IDQ60801/IDQ60801.94183.axf

JavaScript Object Notation format (JSON) in row-major order
http://www.bom.gov.au/fwo/IDQ60801/IDQ60801.94183.json